createdAt,value
2018-07-01T00:00:54.493Z,100678.69
2018-07-01T00:03:24.772Z,100686.35
2018-07-01T00:05:54.573Z,100685.60
2018-07-01T00:08:24.129Z,100677.05
2018-07-01T00:10:55.305Z,100680.72
2018-07-01T00:13:33.215Z,100689.93
2018-07-01T00:16:03.087Z,100680.92
2018-07-01T00:18:31.873Z,100689.55
2018-07-01T00:21:00.565Z,100685.88
2018-07-01T00:23:29.371Z,100687.79
2018-07-01T00:26:01.845Z,100678.45
2018-07-01T00:28:30.598Z,100687.12
2018-07-01T00:30:59.343Z,100687.20
2018-07-01T00:33:42.181Z,100683.16
2018-07-01T00:36:10.782Z,100686.30
2018-07-01T00:38:40.291Z,100686.72
2018-07-01T00:41:09.298Z,100690.68
2018-07-01T00:43:37.770Z,100690.68
2018-07-01T00:46:07.211Z,100687.91
2018-07-01T00:48:36.616Z,100691.32
2018-07-01T00:51:05.874Z,100689.65
2018-07-01T00:53:36.118Z,100693.84
2018-07-01T00:56:05.275Z,100688.64
2018-07-01T00:58:40.011Z,100690.97
2018-07-01T01:01:09.322Z,100689.87
2018-07-01T01:03:37.880Z,100685.91
2018-07-01T01:06:06.623Z,100686.77
2018-07-01T01:08:37.051Z,100689.38
2018-07-01T01:11:05.675Z,100681.07
2018-07-01T01:13:34.268Z,100684.94
2018-07-01T01:16:04.074Z,100690.56
2018-07-01T01:18:33.556Z,100683.14
2018-07-01T01:21:02.492Z,100680.86
2018-07-01T01:23:53.592Z,100686.64
2018-07-01T01:26:22.037Z,100681.79
2018-07-01T01:28:50.692Z,100683.70
2018-07-01T01:31:19.709Z,100679.10
2018-07-01T01:33:48.506Z,100686.44
2018-07-01T01:36:17.141Z,100690.23
2018-07-01T01:38:46.859Z,100682.41
2018-07-01T01:41:20.724Z,100678.53
2018-07-01T01:43:53.812Z,100674.90
2018-07-01T01:46:32.002Z,100675.05
2018-07-01T01:50:08.804Z,100679.23
2018-07-01T01:52:55.087Z,100674.80
2018-07-01T01:55:28.939Z,100677.56
2018-07-01T01:58:03.064Z,100674.95
2018-07-01T02:00:40.450Z,100675.81
2018-07-01T02:03:15.578Z,100676.11
2018-07-01T02:06:04.304Z,100678.70
2018-07-01T02:08:39.812Z,100678.09
2018-07-01T02:11:08.526Z,100675.62
2018-07-01T02:13:39.485Z,100678.63
2018-07-01T02:16:15.430Z,100680.39
2018-07-01T02:18:45.104Z,100683.83
2018-07-01T02:21:13.682Z,100686.05
2018-07-01T02:23:47.772Z,100685.70
2018-07-01T02:26:16.238Z,100686.09
2018-07-01T02:28:45.164Z,100691.54
2018-07-01T02:31:13.616Z,100684.58
2018-07-01T02:33:43.170Z,100686.20
2018-07-01T02:36:11.878Z,100692.59
2018-07-01T02:38:40.202Z,100688.03
2018-07-01T02:41:08.766Z,100689.02
2018-07-01T02:46:36.442Z,100689.86
2018-07-01T02:49:06.744Z,100691.31
2018-07-01T02:54:28.090Z,100703.52
2018-07-01T02:56:56.680Z,100696.35
2018-07-01T02:59:25.182Z,100701.47
2018-07-01T03:01:53.742Z,100704.69
2018-07-01T03:04:22.490Z,100707.16
2018-07-01T03:06:52.142Z,100706.09
2018-07-01T03:09:26.538Z,100708.63
2018-07-01T03:11:55.910Z,100712.34
2018-07-01T03:14:25.749Z,100705.56
2018-07-01T03:16:54.815Z,100710.12
2018-07-01T03:19:23.602Z,100708.82
2018-07-01T03:21:52.316Z,100713.23
2018-07-01T03:24:21.042Z,100710.05
2018-07-01T03:26:50.736Z,100722.80
2018-07-01T03:29:20.958Z,100732.19
2018-07-01T03:31:50.690Z,100721.71
2018-07-01T03:34:19.464Z,100718.34
2018-07-01T03:36:48.132Z,100719.50
2018-07-01T03:39:17.822Z,100725.67
2018-07-01T03:41:47.162Z,100725.73
2018-07-01T03:44:15.857Z,100724.52
2018-07-01T03:46:45.378Z,100728.03
2018-07-01T03:49:14.028Z,100735.30
2018-07-01T03:51:56.254Z,100738.64
2018-07-01T03:54:26.246Z,100739.20
2018-07-01T03:56:54.974Z,100743.93
2018-07-01T03:59:23.747Z,100742.13
2018-07-01T04:01:52.456Z,100743.72
2018-07-01T04:04:21.230Z,100745.58
2018-07-01T04:06:49.885Z,100750.95
2018-07-01T04:09:19.200Z,100760.70
2018-07-01T04:11:49.016Z,100758.63
2018-07-01T04:14:17.898Z,100759.78
2018-07-01T04:16:47.004Z,100764.89
2018-07-01T04:19:15.724Z,100760.34
2018-07-01T04:21:49.676Z,100767.94
2018-07-01T04:24:18.306Z,100771.53
2018-07-01T04:26:47.100Z,100775.55
2018-07-01T04:29:15.783Z,100779.21
2018-07-01T04:31:49.546Z,100775.25
2018-07-01T04:34:18.436Z,100765.28
2018-07-01T04:36:47.260Z,100781.00
2018-07-01T04:39:16.206Z,100791.44
2018-07-01T04:41:54.200Z,100784.63
2018-07-01T04:44:23.850Z,100790.35
2018-07-01T04:46:54.538Z,100789.63
2018-07-01T04:49:23.951Z,100789.37
2018-07-01T04:51:52.720Z,100789.73
2018-07-01T04:54:21.438Z,100785.66
2018-07-01T04:56:50.258Z,100790.27
2018-07-01T04:59:19.364Z,100791.28
2018-07-01T05:01:49.030Z,100792.17
2018-07-01T05:04:18.300Z,100796.06
2018-07-01T05:06:55.143Z,100791.02
2018-07-01T05:09:25.263Z,100795.69
2018-07-01T05:11:55.534Z,100789.63
2018-07-01T05:14:24.141Z,100792.81
2018-07-01T05:16:53.718Z,100791.80
2018-07-01T05:19:23.604Z,100786.59
2018-07-01T05:21:53.006Z,100786.84
2018-07-01T05:24:21.618Z,100786.48
2018-07-01T05:26:51.144Z,100780.59
2018-07-01T05:29:20.424Z,100780.47
2018-07-01T05:31:49.058Z,100786.08
2018-07-01T05:34:17.396Z,100780.60
2018-07-01T05:36:45.842Z,100787.09
2018-07-01T05:39:14.294Z,100789.19
2018-07-01T05:41:56.509Z,100786.13
2018-07-01T05:44:25.867Z,100782.77
2018-07-01T05:46:54.561Z,100789.06
2018-07-01T05:49:23.046Z,100783.39
2018-07-01T05:51:51.474Z,100790.03
2018-07-01T05:54:20.129Z,100793.31
2018-07-01T05:56:48.566Z,100790.88
2018-07-01T05:59:16.962Z,100793.99
2018-07-01T06:02:05.136Z,100796.99
2018-07-01T06:04:33.827Z,100795.98
2018-07-01T06:07:02.530Z,100795.14
2018-07-01T06:09:30.980Z,100803.29
2018-07-01T06:11:59.450Z,100795.74
2018-07-01T06:14:27.896Z,100797.14
2018-07-01T06:16:56.318Z,100803.52
2018-07-01T06:19:25.206Z,100805.44
2018-07-01T06:21:53.650Z,100801.19
2018-07-01T06:24:22.508Z,100803.18
2018-07-01T06:26:50.878Z,100796.77
2018-07-01T06:29:19.438Z,100792.84
2018-07-01T06:31:49.654Z,100793.06
2018-07-01T06:34:18.589Z,100791.66
2018-07-01T06:36:47.051Z,100796.49
2018-07-01T06:39:15.831Z,100795.80
2018-07-01T06:41:46.684Z,100798.59
2018-07-01T06:44:17.182Z,100799.80
2018-07-01T06:46:47.314Z,100800.26
2018-07-01T06:49:16.012Z,100800.04
2018-07-01T06:51:53.954Z,100804.39
2018-07-01T06:54:22.668Z,100811.53
2018-07-01T06:56:51.636Z,100806.41
2018-07-01T06:59:20.600Z,100805.24
2018-07-01T07:01:49.253Z,100816.41
2018-07-01T07:04:18.190Z,100813.72
2018-07-01T07:06:47.096Z,100810.67
2018-07-01T07:09:15.685Z,100804.30
2018-07-01T07:11:47.054Z,100801.70
2018-07-01T07:14:16.869Z,100808.52
2018-07-01T07:16:46.094Z,100799.58
2018-07-01T07:19:14.502Z,100803.55
2018-07-01T07:24:54.474Z,100804.58
2018-07-01T07:27:23.472Z,100802.43
2018-07-01T07:29:51.963Z,100795.38
2018-07-01T07:32:20.979Z,100792.04
2018-07-01T07:35:08.392Z,100797.83
2018-07-01T07:37:38.155Z,100796.89
2018-07-01T07:40:07.534Z,100793.63
2018-07-01T07:42:36.554Z,100789.75
2018-07-01T07:45:06.131Z,100794.41
2018-07-01T07:47:35.530Z,100787.21
2018-07-01T07:50:04.089Z,100785.25
2018-07-01T07:58:18.924Z,100795.77
2018-07-01T08:00:48.442Z,100794.42
2018-07-01T08:03:17.847Z,100795.16
2018-07-01T08:05:46.734Z,100790.30
2018-07-01T08:08:15.510Z,100789.48
2018-07-01T08:10:45.485Z,100787.12
2018-07-01T08:13:14.272Z,100789.10
2018-07-01T08:15:44.570Z,100794.08
2018-07-01T08:18:14.294Z,100792.80
2018-07-01T08:20:43.622Z,100788.80
2018-07-01T08:23:21.717Z,100792.28
2018-07-01T08:25:50.463Z,100788.19
2018-07-01T08:28:20.584Z,100786.98
2018-07-01T08:30:49.472Z,100779.59
2018-07-01T08:33:32.416Z,100791.45
2018-07-01T08:36:01.500Z,100788.72
2018-07-01T08:38:30.463Z,100791.00
2018-07-01T08:40:59.882Z,100777.76
2018-07-01T08:43:29.235Z,100784.64
2018-07-01T08:46:28.395Z,100783.81
2018-07-01T08:48:58.103Z,100779.44
2018-07-01T08:51:31.590Z,100790.19
2018-07-01T08:54:01.262Z,100782.63
2018-07-01T08:56:30.853Z,100787.44
2018-07-01T08:59:00.188Z,100782.97
2018-07-01T09:01:29.799Z,100790.79
2018-07-01T09:03:59.656Z,100789.27
2018-07-01T09:06:29.610Z,100790.03
2018-07-01T09:08:58.991Z,100794.08
2018-07-01T09:11:28.513Z,100787.15
2018-07-01T09:13:58.062Z,100788.61
2018-07-01T09:16:27.483Z,100781.75
2018-07-01T09:18:56.090Z,100791.93
2018-07-01T09:21:31.212Z,100788.80
2018-07-01T09:24:02.770Z,100780.00
2018-07-01T09:26:31.236Z,100770.32
2018-07-01T09:29:00.245Z,100774.55
2018-07-01T09:31:28.956Z,100789.87
2018-07-01T09:33:59.241Z,100786.34
2018-07-01T09:36:27.750Z,100780.14
2018-07-01T09:38:56.746Z,100789.72
2018-07-01T09:41:26.189Z,100792.45
2018-07-01T09:43:55.954Z,100779.67
2018-07-01T09:46:24.512Z,100786.70
2018-07-01T09:48:53.619Z,100784.12
2018-07-01T09:51:22.199Z,100787.67
2018-07-01T09:53:50.782Z,100776.22
2018-07-01T09:56:19.381Z,100780.07
2018-07-01T09:58:49.072Z,100776.48
2018-07-01T10:01:18.274Z,100783.16
2018-07-01T10:03:47.393Z,100772.70
2018-07-01T10:06:16.762Z,100776.30
2018-07-01T10:08:45.261Z,100777.91
2018-07-01T10:11:13.832Z,100780.63
2018-07-01T10:13:44.673Z,100777.20
2018-07-01T10:16:13.178Z,100769.77
2018-07-01T10:18:41.626Z,100773.04
2018-07-01T10:21:10.182Z,100767.75
2018-07-01T10:23:40.102Z,100766.41
2018-07-01T10:26:09.284Z,100758.10
2018-07-01T10:28:39.464Z,100762.63
2018-07-01T10:31:08.376Z,100754.31
2018-07-01T10:33:37.268Z,100759.37
2018-07-01T10:36:06.755Z,100765.14
2018-07-01T10:38:35.512Z,100760.85
2018-07-01T10:41:04.214Z,100755.65
2018-07-01T10:43:33.704Z,100748.20
2018-07-01T10:46:02.270Z,100747.50
2018-07-01T10:48:30.918Z,100740.95
2018-07-01T10:50:59.382Z,100747.33
2018-07-01T10:53:28.187Z,100747.87
2018-07-01T10:55:56.604Z,100750.58
2018-07-01T10:58:25.108Z,100752.87
2018-07-01T11:00:53.537Z,100742.29
2018-07-01T11:03:22.260Z,100741.19
2018-07-01T11:05:50.761Z,100748.63
2018-07-01T11:08:19.315Z,100760.25
2018-07-01T11:10:47.807Z,100756.85
2018-07-01T11:13:17.370Z,100746.24
2018-07-01T11:15:46.124Z,100741.45
2018-07-01T11:18:14.607Z,100733.09
2018-07-01T11:20:43.294Z,100735.68
2018-07-01T11:23:11.802Z,100732.26
2018-07-01T11:25:40.259Z,100732.02
2018-07-01T11:28:08.658Z,100736.80
2018-07-01T11:30:37.192Z,100735.60
2018-07-01T11:33:06.758Z,100726.70
2018-07-01T11:35:35.268Z,100735.38
2018-07-01T11:38:03.789Z,100731.69
2018-07-01T11:40:32.306Z,100736.42
2018-07-01T11:43:00.726Z,100734.21
2018-07-01T11:45:29.114Z,100718.31
2018-07-01T11:47:57.523Z,100724.47
2018-07-01T11:50:26.155Z,100724.04
2018-07-01T11:52:55.188Z,100726.38
2018-07-01T11:55:23.738Z,100726.56
2018-07-01T11:57:52.143Z,100727.06
2018-07-01T12:00:20.615Z,100710.09
2018-07-01T12:02:49.153Z,100711.94
2018-07-01T12:05:17.600Z,100698.11
2018-07-01T12:07:46.122Z,100698.34
2018-07-01T12:10:14.648Z,100700.70
2018-07-01T12:12:48.206Z,100696.38
2018-07-01T12:15:16.660Z,100690.14
2018-07-01T12:17:45.146Z,100683.34
2018-07-01T12:20:14.116Z,100686.55
2018-07-01T12:22:42.664Z,100688.27
2018-07-01T12:27:54.061Z,100691.16
2018-07-01T12:30:23.464Z,100686.10
2018-07-01T12:32:52.115Z,100684.37
2018-07-01T12:35:20.662Z,100679.29
2018-07-01T12:37:49.154Z,100684.08
2018-07-01T12:40:17.542Z,100685.47
2018-07-01T12:42:46.011Z,100683.45
2018-07-01T12:45:14.673Z,100672.72
2018-07-01T12:47:43.181Z,100664.52
2018-07-01T12:50:11.714Z,100669.38
2018-07-01T12:52:45.782Z,100668.89
2018-07-01T12:55:14.205Z,100666.56
2018-07-01T12:57:42.771Z,100662.38
2018-07-01T13:00:11.329Z,100661.13
2018-07-01T13:02:40.132Z,100660.48
2018-07-01T13:05:10.624Z,100653.99
2018-07-01T13:07:39.849Z,100651.08
2018-07-01T13:10:10.823Z,100642.48
2018-07-01T13:12:40.112Z,100648.14
2018-07-01T13:15:08.773Z,100648.02
2018-07-01T13:17:38.319Z,100641.41
2018-07-01T13:20:07.621Z,100632.70
2018-07-01T13:22:37.043Z,100639.47
2018-07-01T13:25:06.336Z,100637.72
2018-07-01T13:27:35.490Z,100630.59
2018-07-01T13:30:04.861Z,100632.28
2018-07-01T13:32:33.428Z,100630.53
2018-07-01T13:35:02.048Z,100634.19
2018-07-01T13:37:32.211Z,100626.78
2018-07-01T13:40:04.573Z,100622.16
2018-07-01T13:42:33.261Z,100617.73
2018-07-01T13:45:01.900Z,100621.88
2018-07-01T13:47:31.783Z,100611.20
2018-07-01T13:50:00.465Z,100618.88
2018-07-01T13:52:30.086Z,100607.60
2018-07-01T13:54:58.702Z,100606.70
2018-07-01T13:57:27.264Z,100604.71
2018-07-01T13:59:55.879Z,100606.39
2018-07-01T14:02:24.557Z,100614.55
2018-07-01T14:04:53.471Z,100614.23
2018-07-01T14:07:22.243Z,100613.85
2018-07-01T14:09:53.042Z,100613.78
2018-07-01T14:12:21.811Z,100615.36
2018-07-01T14:14:50.404Z,100607.16
2018-07-01T14:17:19.008Z,100616.70
2018-07-01T14:19:47.817Z,100609.42
2018-07-01T14:22:16.730Z,100601.03
2018-07-01T14:24:46.815Z,100598.20
2018-07-01T14:27:15.559Z,100586.91
2018-07-01T14:29:44.024Z,100599.83
2018-07-01T14:32:13.068Z,100608.71
2018-07-01T14:34:42.990Z,100604.99
2018-07-01T14:37:11.622Z,100606.23
2018-07-01T14:39:40.812Z,100613.24
2018-07-01T14:42:09.393Z,100602.03
2018-07-01T14:44:39.042Z,100594.81
2018-07-01T14:47:08.382Z,100599.83
2018-07-01T14:49:36.884Z,100597.06
2018-07-01T14:52:05.335Z,100602.62
2018-07-01T14:54:33.790Z,100597.05
2018-07-01T14:57:02.452Z,100600.09
2018-07-01T14:59:30.938Z,100586.28
2018-07-01T15:01:59.432Z,100578.23
2018-07-01T15:04:27.943Z,100585.61
2018-07-01T15:06:56.454Z,100579.31
2018-07-01T15:09:24.913Z,100578.16
2018-07-01T15:11:53.517Z,100587.58
2018-07-01T15:14:22.735Z,100584.89
2018-07-01T15:16:51.463Z,100585.17
2018-07-01T15:19:19.841Z,100582.63
2018-07-01T15:21:48.317Z,100589.84
2018-07-01T15:24:16.732Z,100574.23
2018-07-01T15:26:45.196Z,100576.00
2018-07-01T15:29:13.719Z,100572.89
2018-07-01T15:31:42.256Z,100572.56
2018-07-01T15:34:10.726Z,100562.56
2018-07-01T15:36:39.293Z,100563.65
2018-07-01T15:39:09.925Z,100555.77
2018-07-01T15:41:44.279Z,100558.64
2018-07-01T15:44:13.077Z,100565.02
2018-07-01T15:46:41.602Z,100557.67
2018-07-01T15:49:10.161Z,100565.41
2018-07-01T15:51:38.636Z,100563.42
2018-07-01T15:54:07.263Z,100559.86
2018-07-01T15:56:35.705Z,100548.73
2018-07-01T15:59:04.205Z,100553.38
2018-07-01T16:01:32.677Z,100541.39
2018-07-01T16:04:01.135Z,100542.13
2018-07-01T16:06:29.571Z,100543.42
2018-07-01T16:08:58.134Z,100544.56
2018-07-01T16:11:27.985Z,100545.92
2018-07-01T16:13:56.556Z,100549.14
2018-07-01T16:16:24.954Z,100555.92
2018-07-01T16:18:53.467Z,100558.95
2018-07-01T16:21:21.992Z,100552.14
2018-07-01T16:23:50.791Z,100549.80
2018-07-01T16:26:24.412Z,100544.29
2018-07-01T16:28:58.111Z,100545.15
2018-07-01T16:31:26.508Z,100540.87
2018-07-01T16:33:55.004Z,100544.44
2018-07-01T16:36:23.473Z,100543.36
2018-07-01T16:38:52.643Z,100538.63
2018-07-01T16:41:21.081Z,100540.78
2018-07-01T16:43:49.601Z,100540.20
2018-07-01T16:46:17.964Z,100534.42
2018-07-01T16:48:46.485Z,100531.38
2018-07-01T16:51:15.114Z,100531.93
2018-07-01T16:53:44.060Z,100532.92
2018-07-01T16:56:12.410Z,100534.64
2018-07-01T16:58:41.075Z,100529.88
2018-07-01T17:01:09.603Z,100536.80
2018-07-01T17:03:38.022Z,100532.92
2018-07-01T17:06:07.498Z,100539.43
2018-07-01T17:08:35.952Z,100536.44
2018-07-01T17:11:04.415Z,100540.20
2018-07-01T17:13:38.043Z,100536.55
2018-07-01T17:16:07.558Z,100532.70
2018-07-01T17:18:38.128Z,100536.86
2018-07-01T17:21:07.084Z,100538.13
2018-07-01T17:23:45.087Z,100538.18
2018-07-01T17:26:13.465Z,100541.11
2018-07-01T17:28:41.976Z,100539.17
2018-07-01T17:31:15.861Z,100542.11
2018-07-01T17:33:44.642Z,100535.52
2018-07-01T17:36:13.126Z,100544.50
2018-07-01T17:38:41.635Z,100540.44
2018-07-01T17:41:10.222Z,100534.80
2018-07-01T17:43:39.195Z,100534.73
2018-07-01T17:46:07.837Z,100538.09
2018-07-01T17:48:36.286Z,100538.36
2018-07-01T17:51:04.804Z,100536.73
2018-07-01T17:54:07.851Z,100543.06
2018-07-01T17:56:36.395Z,100542.66
2018-07-01T17:59:04.857Z,100542.22
2018-07-01T18:01:33.483Z,100541.08
2018-07-01T18:04:20.639Z,100549.70
2018-07-01T18:06:49.178Z,100544.41
2018-07-01T18:09:17.927Z,100545.19
2018-07-01T18:11:46.361Z,100548.34
2018-07-01T18:14:14.917Z,100547.12
2018-07-01T18:16:43.362Z,100539.00
2018-07-01T18:19:11.877Z,100544.77
2018-07-01T18:21:42.929Z,100547.84
2018-07-01T18:24:35.144Z,100540.71
2018-07-01T18:26:37.943Z,100540.11
2018-07-01T18:29:13.248Z,100537.22
2018-07-01T18:31:35.032Z,100539.44
2018-07-01T18:34:12.998Z,100542.59
2018-07-01T18:36:41.857Z,100540.88
2018-07-01T18:39:10.811Z,100544.81
2018-07-01T18:41:40.185Z,100545.39
2018-07-01T18:44:08.746Z,100546.75
2018-07-01T18:46:37.731Z,100547.88
2018-07-01T18:49:06.629Z,100552.17
2018-07-01T18:51:35.169Z,100555.66
2018-07-01T18:54:08.975Z,100552.36
2018-07-01T18:56:38.257Z,100545.59
2018-07-01T18:59:06.933Z,100555.69
2018-07-01T19:01:35.779Z,100558.02
2018-07-01T19:06:57.708Z,100551.16
2018-07-01T19:09:26.160Z,100557.05
2018-07-01T19:11:54.922Z,100556.95
2018-07-01T19:14:23.675Z,100553.58
2018-07-01T19:16:52.345Z,100565.56
2018-07-01T19:19:21.456Z,100561.88
2018-07-01T19:21:50.137Z,100563.66
2018-07-01T19:24:18.945Z,100568.65
2018-07-01T19:26:47.761Z,100567.36
2018-07-01T19:29:16.697Z,100569.00
2018-07-01T19:31:45.640Z,100568.79
2018-07-01T19:34:14.334Z,100572.72
2018-07-01T19:36:43.335Z,100573.33
2018-07-01T19:39:12.579Z,100584.97
2018-07-01T19:41:41.272Z,100580.23
2018-07-01T19:44:10.272Z,100578.28
2018-07-01T19:46:39.200Z,100577.26
2018-07-01T19:49:09.095Z,100576.48
2018-07-01T19:51:38.649Z,100578.98
2018-07-01T19:54:07.616Z,100583.06
2018-07-01T19:56:37.525Z,100588.59
2018-07-01T19:59:07.223Z,100590.75
2018-07-01T20:01:38.420Z,100592.23
2018-07-01T20:04:14.461Z,100589.31
2018-07-01T20:06:44.547Z,100593.48
2018-07-01T20:09:15.371Z,100587.85
2018-07-01T20:11:46.333Z,100592.71
2018-07-01T20:14:16.504Z,100593.31
2018-07-01T20:16:46.206Z,100597.84
2018-07-01T20:19:15.932Z,100597.50
2018-07-01T20:21:48.867Z,100601.90
2018-07-01T20:24:20.921Z,100603.13
2018-07-01T20:26:49.805Z,100596.60
2018-07-01T20:29:18.881Z,100596.37
2018-07-01T20:31:47.820Z,100596.72
2018-07-01T20:34:16.769Z,100592.20
2018-07-01T20:36:46.585Z,100591.87
2018-07-01T20:39:15.999Z,100586.27
2018-07-01T20:41:44.891Z,100590.75
2018-07-01T20:44:13.569Z,100592.22
2018-07-01T20:46:42.029Z,100587.85
2018-07-01T20:49:10.481Z,100586.92
2018-07-01T20:51:39.024Z,100585.03
2018-07-01T20:54:12.874Z,100592.77
2018-07-01T20:56:41.693Z,100595.23
2018-07-01T20:59:10.540Z,100600.45
2018-07-01T21:01:41.449Z,100599.09
2018-07-01T21:04:24.460Z,100597.74
2018-07-01T21:06:53.161Z,100594.92
2018-07-01T21:09:21.885Z,100591.88
2018-07-01T21:11:50.690Z,100590.09
2018-07-01T21:14:20.104Z,100598.64
2018-07-01T21:16:48.556Z,100594.50
2018-07-01T21:19:18.133Z,100599.13
2018-07-01T21:21:46.989Z,100590.78
2018-07-01T21:24:15.495Z,100602.50
2018-07-01T21:26:45.509Z,100602.95
2018-07-01T21:29:14.026Z,100607.55
2018-07-01T21:31:42.845Z,100603.85
2018-07-01T21:34:11.483Z,100596.42
2018-07-01T21:36:39.896Z,100604.59
2018-07-01T21:39:11.055Z,100600.84
2018-07-01T21:41:40.047Z,100601.77
2018-07-01T21:44:09.141Z,100597.84
2018-07-01T21:46:37.625Z,100594.38
2018-07-01T21:49:07.213Z,100596.14
2018-07-01T21:51:38.169Z,100596.58
2018-07-01T21:54:06.626Z,100590.28
2018-07-01T21:56:35.087Z,100594.89
2018-07-01T21:59:03.485Z,100595.20
2018-07-01T22:01:32.028Z,100601.72
2018-07-01T22:04:00.527Z,100599.92
2018-07-01T22:06:34.021Z,100596.22
2018-07-01T22:09:02.381Z,100605.23
2018-07-01T22:11:45.666Z,100601.05
2018-07-01T22:14:24.149Z,100605.55
2018-07-01T22:16:52.733Z,100607.54
2018-07-01T22:19:22.007Z,100602.02
2018-07-01T22:21:52.954Z,100604.61
2018-07-01T22:24:21.827Z,100609.10
2018-07-01T22:26:50.289Z,100601.69
2018-07-01T22:29:18.877Z,100605.16
2018-07-01T22:31:47.408Z,100607.05
2018-07-01T22:34:17.061Z,100605.58
2018-07-01T22:36:46.848Z,100601.73
2018-07-01T22:39:23.279Z,100600.83
2018-07-01T22:41:53.021Z,100598.54
2018-07-01T22:44:22.341Z,100602.11
2018-07-01T22:46:52.242Z,100596.52
2018-07-01T22:49:20.685Z,100593.64
2018-07-01T22:51:49.153Z,100596.97
2018-07-01T22:54:17.680Z,100596.97
2018-07-01T22:56:46.089Z,100594.91
2018-07-01T22:59:14.648Z,100593.02
2018-07-01T23:03:05.113Z,100595.24
2018-07-01T23:05:33.491Z,100610.26
2018-07-01T23:08:01.919Z,100596.35
2018-07-01T23:10:31.257Z,100601.30
2018-07-01T23:13:04.798Z,100607.89
2018-07-01T23:15:33.357Z,100609.72
2018-07-01T23:18:01.889Z,100607.85
2018-07-01T23:20:30.647Z,100614.00
2018-07-01T23:23:08.860Z,100602.06
2018-07-01T23:25:37.321Z,100594.77
2018-07-01T23:28:05.749Z,100598.95
2018-07-01T23:30:34.199Z,100591.53
2018-07-01T23:33:02.811Z,100586.28
2018-07-01T23:35:31.259Z,100591.53
2018-07-01T23:37:59.683Z,100593.84
2018-07-01T23:40:28.135Z,100594.50
2018-07-01T23:42:56.521Z,100585.77
2018-07-01T23:45:24.991Z,100591.72
2018-07-01T23:47:53.344Z,100588.31
2018-07-01T23:50:21.834Z,100591.19
2018-07-01T23:52:50.216Z,100591.85
2018-07-01T23:55:18.611Z,100591.85
2018-07-01T23:57:47.077Z,100587.13
